sensor_id;sensor_type;location;lat;lon;timestamp;P1;durP1;ratioP1;P2;durP2;ratioP2
41713;SDS011;27401;47.384;13.666;2024-01-30T00:01:24;0.30;;;0.30;;
41713;SDS011;27401;47.384;13.666;2024-01-30T00:03:50;0.40;;;0.20;;
41713;SDS011;27401;47.384;13.666;2024-01-30T00:06:18;0.20;;;0.20;;
41713;SDS011;27401;47.384;13.666;2024-01-30T00:08:46;0.22;;;0.20;;
41713;SDS011;27401;47.384;13.666;2024-01-30T00:11:14;0.10;;;0.10;;
41713;SDS011;27401;47.384;13.666;2024-01-30T00:13:40;0.22;;;0.20;;
41713;SDS011;27401;47.384;13.666;2024-01-30T00:16:06;0.70;;;0.52;;
41713;SDS011;27401;47.384;13.666;2024-01-30T00:18:32;0.25;;;0.20;;
41713;SDS011;27401;47.384;13.666;2024-01-30T00:20:58;0.43;;;0.35;;
41713;SDS011;27401;47.384;13.666;2024-01-30T00:23:23;0.32;;;0.30;;
41713;SDS011;27401;47.384;13.666;2024-01-30T00:25:50;0.20;;;0.20;;
41713;SDS011;27401;47.384;13.666;2024-01-30T00:28:15;0.70;;;0.30;;
41713;SDS011;27401;47.384;13.666;2024-01-30T00:30:41;1.85;;;0.50;;
41713;SDS011;27401;47.384;13.666;2024-01-30T00:33:07;1.27;;;0.30;;
41713;SDS011;27401;47.384;13.666;2024-01-30T00:35:33;0.20;;;0.20;;
41713;SDS011;27401;47.384;13.666;2024-01-30T00:37:59;0.20;;;0.20;;
41713;SDS011;27401;47.384;13.666;2024-01-30T00:40:24;0.38;;;0.30;;
41713;SDS011;27401;47.384;13.666;2024-01-30T00:42:50;0.85;;;0.32;;
41713;SDS011;27401;47.384;13.666;2024-01-30T00:45:16;0.82;;;0.47;;
41713;SDS011;27401;47.384;13.666;2024-01-30T00:47:42;0.30;;;0.30;;
41713;SDS011;27401;47.384;13.666;2024-01-30T00:50:08;0.20;;;0.20;;
41713;SDS011;27401;47.384;13.666;2024-01-30T00:52:34;0.22;;;0.20;;
41713;SDS011;27401;47.384;13.666;2024-01-30T00:55:00;1.13;;;0.30;;
41713;SDS011;27401;47.384;13.666;2024-01-30T00:57:25;0.30;;;0.30;;
41713;SDS011;27401;47.384;13.666;2024-01-30T00:59:52;0.32;;;0.32;;
41713;SDS011;27401;47.384;13.666;2024-01-30T01:02:18;1.17;;;0.60;;
41713;SDS011;27401;47.384;13.666;2024-01-30T01:04:44;0.30;;;0.20;;
41713;SDS011;27401;47.384;13.666;2024-01-30T01:07:10;0.57;;;0.40;;
41713;SDS011;27401;47.384;13.666;2024-01-30T01:09:37;0.30;;;0.30;;
41713;SDS011;27401;47.384;13.666;2024-01-30T01:12:03;0.60;;;0.30;;
41713;SDS011;27401;47.384;13.666;2024-01-30T01:14:29;1.02;;;0.30;;
41713;SDS011;27401;47.384;13.666;2024-01-30T01:16:54;0.85;;;0.40;;
41713;SDS011;27401;47.384;13.666;2024-01-30T01:19:20;0.20;;;0.20;;
41713;SDS011;27401;47.384;13.666;2024-01-30T01:21:46;1.40;;;0.40;;
41713;SDS011;27401;47.384;13.666;2024-01-30T01:24:12;1.38;;;0.30;;
41713;SDS011;27401;47.384;13.666;2024-01-30T01:26:38;0.30;;;0.30;;
41713;SDS011;27401;47.384;13.666;2024-01-30T01:29:03;0.20;;;0.20;;
41713;SDS011;27401;47.384;13.666;2024-01-30T01:31:35;0.30;;;0.28;;
41713;SDS011;27401;47.384;13.666;2024-01-30T01:34:05;0.93;;;0.50;;
41713;SDS011;27401;47.384;13.666;2024-01-30T01:36:31;1.63;;;0.10;;
41713;SDS011;27401;47.384;13.666;2024-01-30T01:38:57;0.20;;;0.20;;
41713;SDS011;27401;47.384;13.666;2024-01-30T01:41:22;0.43;;;0.22;;
41713;SDS011;27401;47.384;13.666;2024-01-30T01:43:48;0.20;;;0.20;;
41713;SDS011;27401;47.384;13.666;2024-01-30T01:46:13;0.45;;;0.40;;
41713;SDS011;27401;47.384;13.666;2024-01-30T01:48:39;0.35;;;0.35;;
41713;SDS011;27401;47.384;13.666;2024-01-30T01:51:06;0.30;;;0.30;;
41713;SDS011;27401;47.384;13.666;2024-01-30T01:53:32;0.60;;;0.25;;
41713;SDS011;27401;47.384;13.666;2024-01-30T01:55:57;0.52;;;0.30;;
41713;SDS011;27401;47.384;13.666;2024-01-30T01:58:23;0.22;;;0.22;;
41713;SDS011;27401;47.384;13.666;2024-01-30T02:00:52;0.45;;;0.30;;
41713;SDS011;27401;47.384;13.666;2024-01-30T02:03:18;0.52;;;0.25;;
41713;SDS011;27401;47.384;13.666;2024-01-30T02:05:46;0.40;;;0.30;;
41713;SDS011;27401;47.384;13.666;2024-01-30T02:08:12;0.88;;;0.40;;
41713;SDS011;27401;47.384;13.666;2024-01-30T02:10:37;0.22;;;0.22;;
41713;SDS011;27401;47.384;13.666;2024-01-30T02:13:03;0.68;;;0.22;;
41713;SDS011;27401;47.384;13.666;2024-01-30T02:15:30;0.55;;;0.30;;
41713;SDS011;27401;47.384;13.666;2024-01-30T02:17:56;0.20;;;0.20;;
41713;SDS011;27401;47.384;13.666;2024-01-30T02:20:22;0.45;;;0.43;;
41713;SDS011;27401;47.384;13.666;2024-01-30T02:22:49;1.10;;;0.30;;
41713;SDS011;27401;47.384;13.666;2024-01-30T02:25:14;0.30;;;0.30;;
41713;SDS011;27401;47.384;13.666;2024-01-30T02:27:40;0.47;;;0.38;;
41713;SDS011;27401;47.384;13.666;2024-01-30T02:30:06;0.20;;;0.20;;
41713;SDS011;27401;47.384;13.666;2024-01-30T02:32:32;0.30;;;0.20;;
41713;SDS011;27401;47.384;13.666;2024-01-30T02:34:57;0.30;;;0.30;;
41713;SDS011;27401;47.384;13.666;2024-01-30T02:37:23;1.55;;;0.40;;
41713;SDS011;27401;47.384;13.666;2024-01-30T02:39:49;0.40;;;0.38;;
41713;SDS011;27401;47.384;13.666;2024-01-30T02:42:14;0.30;;;0.30;;
41713;SDS011;27401;47.384;13.666;2024-01-30T02:44:40;0.63;;;0.50;;
41713;SDS011;27401;47.384;13.666;2024-01-30T02:47:05;0.30;;;0.30;;
41713;SDS011;27401;47.384;13.666;2024-01-30T02:49:31;0.52;;;0.52;;
41713;SDS011;27401;47.384;13.666;2024-01-30T02:51:57;0.60;;;0.45;;
41713;SDS011;27401;47.384;13.666;2024-01-30T02:54:23;0.30;;;0.30;;
41713;SDS011;27401;47.384;13.666;2024-01-30T02:56:48;0.75;;;0.40;;
41713;SDS011;27401;47.384;13.666;2024-01-30T02:59:14;0.40;;;0.30;;
41713;SDS011;27401;47.384;13.666;2024-01-30T03:01:45;0.82;;;0.38;;
41713;SDS011;27401;47.384;13.666;2024-01-30T03:06:37;0.70;;;0.30;;
41713;SDS011;27401;47.384;13.666;2024-01-30T03:09:03;0.28;;;0.28;;
41713;SDS011;27401;47.384;13.666;2024-01-30T03:11:30;2.58;;;0.30;;
41713;SDS011;27401;47.384;13.666;2024-01-30T03:13:56;0.35;;;0.30;;
41713;SDS011;27401;47.384;13.666;2024-01-30T03:16:21;0.47;;;0.47;;
41713;SDS011;27401;47.384;13.666;2024-01-30T03:18:47;1.50;;;0.77;;
41713;SDS011;27401;47.384;13.666;2024-01-30T03:21:13;0.63;;;0.30;;
41713;SDS011;27401;47.384;13.666;2024-01-30T03:23:39;0.80;;;0.30;;
41713;SDS011;27401;47.384;13.666;2024-01-30T03:26:05;0.25;;;0.20;;
41713;SDS011;27401;47.384;13.666;2024-01-30T03:28:32;0.40;;;0.30;;
41713;SDS011;27401;47.384;13.666;2024-01-30T03:30:57;2.00;;;0.43;;
41713;SDS011;27401;47.384;13.666;2024-01-30T03:33:23;4.70;;;0.35;;
41713;SDS011;27401;47.384;13.666;2024-01-30T03:35:48;0.40;;;0.28;;
41713;SDS011;27401;47.384;13.666;2024-01-30T03:38:14;1.05;;;0.40;;
41713;SDS011;27401;47.384;13.666;2024-01-30T03:40:39;2.15;;;0.40;;
41713;SDS011;27401;47.384;13.666;2024-01-30T03:43:05;0.70;;;0.20;;
41713;SDS011;27401;47.384;13.666;2024-01-30T03:45:31;0.40;;;0.30;;
41713;SDS011;27401;47.384;13.666;2024-01-30T03:47:57;0.30;;;0.20;;
41713;SDS011;27401;47.384;13.666;2024-01-30T03:50:22;0.20;;;0.20;;
41713;SDS011;27401;47.384;13.666;2024-01-30T03:52:48;0.20;;;0.20;;
41713;SDS011;27401;47.384;13.666;2024-01-30T03:55:13;0.35;;;0.35;;
41713;SDS011;27401;47.384;13.666;2024-01-30T03:57:39;0.43;;;0.22;;
41713;SDS011;27401;47.384;13.666;2024-01-30T04:00:05;0.30;;;0.30;;
41713;SDS011;27401;47.384;13.666;2024-01-30T04:02:37;1.15;;;0.10;;
41713;SDS011;27401;47.384;13.666;2024-01-30T04:05:03;0.28;;;0.20;;
41713;SDS011;27401;47.384;13.666;2024-01-30T04:07:28;0.30;;;0.30;;
41713;SDS011;27401;47.384;13.666;2024-01-30T04:09:54;0.20;;;0.20;;
41713;SDS011;27401;47.384;13.666;2024-01-30T04:12:20;3.28;;;0.40;;
41713;SDS011;27401;47.384;13.666;2024-01-30T04:14:45;0.22;;;0.22;;
41713;SDS011;27401;47.384;13.666;2024-01-30T04:17:11;0.75;;;0.30;;
41713;SDS011;27401;47.384;13.666;2024-01-30T04:19:37;1.05;;;0.70;;
41713;SDS011;27401;47.384;13.666;2024-01-30T04:22:03;1.23;;;0.80;;
41713;SDS011;27401;47.384;13.666;2024-01-30T04:24:29;1.13;;;0.63;;
41713;SDS011;27401;47.384;13.666;2024-01-30T04:26:55;0.85;;;0.40;;
41713;SDS011;27401;47.384;13.666;2024-01-30T04:29:20;0.85;;;0.40;;
41713;SDS011;27401;47.384;13.666;2024-01-30T04:31:47;2.47;;;0.47;;
41713;SDS011;27401;47.384;13.666;2024-01-30T04:34:13;0.50;;;0.43;;
41713;SDS011;27401;47.384;13.666;2024-01-30T04:36:38;1.33;;;0.50;;
41713;SDS011;27401;47.384;13.666;2024-01-30T04:39:04;0.95;;;0.65;;
41713;SDS011;27401;47.384;13.666;2024-01-30T04:41:30;0.60;;;0.40;;
41713;SDS011;27401;47.384;13.666;2024-01-30T04:43:57;0.43;;;0.30;;
41713;SDS011;27401;47.384;13.666;2024-01-30T04:46:23;1.65;;;0.38;;
41713;SDS011;27401;47.384;13.666;2024-01-30T04:48:48;0.55;;;0.32;;
41713;SDS011;27401;47.384;13.666;2024-01-30T04:51:14;0.77;;;0.32;;
41713;SDS011;27401;47.384;13.666;2024-01-30T04:53:39;0.77;;;0.38;;
41713;SDS011;27401;47.384;13.666;2024-01-30T04:56:05;4.30;;;0.50;;
41713;SDS011;27401;47.384;13.666;2024-01-30T04:58:31;0.95;;;0.30;;
41713;SDS011;27401;47.384;13.666;2024-01-30T05:00:57;0.30;;;0.30;;
41713;SDS011;27401;47.384;13.666;2024-01-30T05:03:22;0.65;;;0.28;;
41713;SDS011;27401;47.384;13.666;2024-01-30T05:05:49;0.28;;;0.22;;
41713;SDS011;27401;47.384;13.666;2024-01-30T05:08:15;0.38;;;0.30;;
41713;SDS011;27401;47.384;13.666;2024-01-30T05:10:40;1.63;;;0.30;;
41713;SDS011;27401;47.384;13.666;2024-01-30T05:13:06;0.40;;;0.40;;
41713;SDS011;27401;47.384;13.666;2024-01-30T05:15:31;1.95;;;0.30;;
41713;SDS011;27401;47.384;13.666;2024-01-30T05:17:57;1.17;;;0.50;;
41713;SDS011;27401;47.384;13.666;2024-01-30T05:20:22;0.20;;;0.20;;
41713;SDS011;27401;47.384;13.666;2024-01-30T05:22:48;0.93;;;0.25;;
41713;SDS011;27401;47.384;13.666;2024-01-30T05:25:14;1.85;;;0.40;;
41713;SDS011;27401;47.384;13.666;2024-01-30T05:27:39;0.20;;;0.20;;
41713;SDS011;27401;47.384;13.666;2024-01-30T05:30:06;3.50;;;0.40;;
41713;SDS011;27401;47.384;13.666;2024-01-30T05:32:32;2.08;;;0.40;;
41713;SDS011;27401;47.384;13.666;2024-01-30T05:34:57;3.40;;;0.38;;
41713;SDS011;27401;47.384;13.666;2024-01-30T05:37:23;5.25;;;0.43;;
41713;SDS011;27401;47.384;13.666;2024-01-30T05:39:49;0.30;;;0.20;;
41713;SDS011;27401;47.384;13.666;2024-01-30T05:42:14;1.95;;;0.70;;
41713;SDS011;27401;47.384;13.666;2024-01-30T05:44:42;1.52;;;1.00;;
41713;SDS011;27401;47.384;13.666;2024-01-30T05:47:08;44.05;;;32.92;;
41713;SDS011;27401;47.384;13.666;2024-01-30T05:49:33;242.60;;;161.93;;
41713;SDS011;27401;47.384;13.666;2024-01-30T05:52:00;123.50;;;74.15;;
41713;SDS011;27401;47.384;13.666;2024-01-30T05:54:27;89.43;;;55.75;;
41713;SDS011;27401;47.384;13.666;2024-01-30T05:56:52;65.13;;;42.10;;
41713;SDS011;27401;47.384;13.666;2024-01-30T05:59:18;16.02;;;11.70;;
41713;SDS011;27401;47.384;13.666;2024-01-30T06:01:47;5.60;;;4.15;;
41713;SDS011;27401;47.384;13.666;2024-01-30T06:04:13;1.27;;;0.80;;
41713;SDS011;27401;47.384;13.666;2024-01-30T06:06:39;0.40;;;0.30;;
41713;SDS011;27401;47.384;13.666;2024-01-30T06:09:05;0.98;;;0.68;;
41713;SDS011;27401;47.384;13.666;2024-01-30T06:11:31;0.90;;;0.73;;
41713;SDS011;27401;47.384;13.666;2024-01-30T06:13:56;0.43;;;0.40;;
41713;SDS011;27401;47.384;13.666;2024-01-30T06:16:22;5.00;;;0.80;;
41713;SDS011;27401;47.384;13.666;2024-01-30T06:18:48;0.73;;;0.73;;
41713;SDS011;27401;47.384;13.666;2024-01-30T06:21:13;2.28;;;1.50;;
41713;SDS011;27401;47.384;13.666;2024-01-30T06:23:39;2.22;;;1.23;;
41713;SDS011;27401;47.384;13.666;2024-01-30T06:26:06;1.55;;;0.38;;
41713;SDS011;27401;47.384;13.666;2024-01-30T06:28:32;0.47;;;0.40;;
41713;SDS011;27401;47.384;13.666;2024-01-30T06:30:58;1.10;;;0.43;;
41713;SDS011;27401;47.384;13.666;2024-01-30T06:33:23;0.90;;;0.40;;
41713;SDS011;27401;47.384;13.666;2024-01-30T06:35:49;0.32;;;0.30;;
41713;SDS011;27401;47.384;13.666;2024-01-30T06:38:14;0.85;;;0.45;;
41713;SDS011;27401;47.384;13.666;2024-01-30T06:40:41;0.60;;;0.25;;
41713;SDS011;27401;47.384;13.666;2024-01-30T06:43:07;1.23;;;0.22;;
41713;SDS011;27401;47.384;13.666;2024-01-30T06:45:33;0.82;;;0.50;;
41713;SDS011;27401;47.384;13.666;2024-01-30T06:47:59;0.95;;;0.60;;
41713;SDS011;27401;47.384;13.666;2024-01-30T06:50:25;1.02;;;0.90;;
41713;SDS011;27401;47.384;13.666;2024-01-30T06:52:51;3.40;;;1.00;;
41713;SDS011;27401;47.384;13.666;2024-01-30T06:55:17;1.05;;;0.90;;
41713;SDS011;27401;47.384;13.666;2024-01-30T06:57:43;1.20;;;0.80;;
41713;SDS011;27401;47.384;13.666;2024-01-30T07:00:09;3.03;;;2.00;;
41713;SDS011;27401;47.384;13.666;2024-01-30T07:02:35;6.45;;;4.18;;
41713;SDS011;27401;47.384;13.666;2024-01-30T07:05:01;6.32;;;4.15;;
41713;SDS011;27401;47.384;13.666;2024-01-30T07:07:28;2.67;;;2.20;;
41713;SDS011;27401;47.384;13.666;2024-01-30T07:09:54;0.75;;;0.70;;
41713;SDS011;27401;47.384;13.666;2024-01-30T07:12:22;0.35;;;0.35;;
41713;SDS011;27401;47.384;13.666;2024-01-30T07:14:49;0.88;;;0.30;;
41713;SDS011;27401;47.384;13.666;2024-01-30T07:17:15;1.20;;;0.68;;
41713;SDS011;27401;47.384;13.666;2024-01-30T07:19:41;2.15;;;1.80;;
41713;SDS011;27401;47.384;13.666;2024-01-30T07:22:07;2.83;;;1.95;;
41713;SDS011;27401;47.384;13.666;2024-01-30T07:24:33;2.03;;;0.90;;
41713;SDS011;27401;47.384;13.666;2024-01-30T07:26:59;1.23;;;0.73;;
41713;SDS011;27401;47.384;13.666;2024-01-30T07:29:24;1.63;;;1.17;;
41713;SDS011;27401;47.384;13.666;2024-01-30T07:31:50;2.45;;;1.50;;
41713;SDS011;27401;47.384;13.666;2024-01-30T07:34:15;0.75;;;0.75;;
41713;SDS011;27401;47.384;13.666;2024-01-30T07:36:41;0.88;;;0.80;;
41713;SDS011;27401;47.384;13.666;2024-01-30T07:39:07;1.08;;;0.80;;
41713;SDS011;27401;47.384;13.666;2024-01-30T07:41:33;3.47;;;0.50;;
41713;SDS011;27401;47.384;13.666;2024-01-30T07:43:58;1.67;;;0.40;;
41713;SDS011;27401;47.384;13.666;2024-01-30T07:46:24;1.58;;;0.75;;
41713;SDS011;27401;47.384;13.666;2024-01-30T07:48:50;2.75;;;0.90;;
41713;SDS011;27401;47.384;13.666;2024-01-30T07:51:15;4.72;;;1.02;;
41713;SDS011;27401;47.384;13.666;2024-01-30T07:53:41;2.85;;;0.60;;
41713;SDS011;27401;47.384;13.666;2024-01-30T07:56:07;3.42;;;1.00;;
41713;SDS011;27401;47.384;13.666;2024-01-30T07:58:32;2.28;;;0.95;;
41713;SDS011;27401;47.384;13.666;2024-01-30T08:00:58;2.30;;;0.77;;
41713;SDS011;27401;47.384;13.666;2024-01-30T08:03:25;3.17;;;0.65;;
41713;SDS011;27401;47.384;13.666;2024-01-30T08:05:51;1.45;;;0.45;;
41713;SDS011;27401;47.384;13.666;2024-01-30T08:08:17;0.73;;;0.40;;
41713;SDS011;27401;47.384;13.666;2024-01-30T08:10:42;0.35;;;0.35;;
41713;SDS011;27401;47.384;13.666;2024-01-30T08:13:08;1.92;;;0.68;;
41713;SDS011;27401;47.384;13.666;2024-01-30T08:15:34;0.60;;;0.60;;
41713;SDS011;27401;47.384;13.666;2024-01-30T08:18:00;10.43;;;6.88;;
41713;SDS011;27401;47.384;13.666;2024-01-30T08:20:25;8.35;;;5.25;;
41713;SDS011;27401;47.384;13.666;2024-01-30T08:22:51;3.05;;;2.03;;
41713;SDS011;27401;47.384;13.666;2024-01-30T08:25:17;3.72;;;2.60;;
41713;SDS011;27401;47.384;13.666;2024-01-30T08:27:43;1.13;;;1.00;;
41713;SDS011;27401;47.384;13.666;2024-01-30T08:30:10;0.30;;;0.30;;
41713;SDS011;27401;47.384;13.666;2024-01-30T08:32:36;0.75;;;0.47;;
41713;SDS011;27401;47.384;13.666;2024-01-30T08:35:03;6.13;;;2.63;;
41713;SDS011;27401;47.384;13.666;2024-01-30T08:37:29;9.10;;;5.60;;
41713;SDS011;27401;47.384;13.666;2024-01-30T08:39:55;0.95;;;0.95;;
41713;SDS011;27401;47.384;13.666;2024-01-30T08:42:21;0.90;;;0.90;;
41713;SDS011;27401;47.384;13.666;2024-01-30T08:44:48;0.60;;;0.60;;
41713;SDS011;27401;47.384;13.666;2024-01-30T08:47:15;0.30;;;0.30;;
41713;SDS011;27401;47.384;13.666;2024-01-30T08:49:42;0.40;;;0.30;;
41713;SDS011;27401;47.384;13.666;2024-01-30T08:52:12;0.20;;;0.20;;
41713;SDS011;27401;47.384;13.666;2024-01-30T08:54:37;1.48;;;0.20;;
41713;SDS011;27401;47.384;13.666;2024-01-30T08:57:03;3.35;;;0.30;;
41713;SDS011;27401;47.384;13.666;2024-01-30T08:59:29;8.73;;;1.33;;
41713;SDS011;27401;47.384;13.666;2024-01-30T09:01:55;87.95;;;61.15;;
41713;SDS011;27401;47.384;13.666;2024-01-30T09:04:23;70.82;;;45.60;;
41713;SDS011;27401;47.384;13.666;2024-01-30T09:06:49;12.27;;;5.93;;
41713;SDS011;27401;47.384;13.666;2024-01-30T09:09:14;9.82;;;3.88;;
41713;SDS011;27401;47.384;13.666;2024-01-30T09:11:40;7.88;;;3.22;;
41713;SDS011;27401;47.384;13.666;2024-01-30T09:14:05;11.63;;;4.32;;
41713;SDS011;27401;47.384;13.666;2024-01-30T09:16:31;9.45;;;5.15;;
41713;SDS011;27401;47.384;13.666;2024-01-30T09:18:57;6.53;;;4.35;;
41713;SDS011;27401;47.384;13.666;2024-01-30T09:21:23;8.65;;;4.68;;
41713;SDS011;27401;47.384;13.666;2024-01-30T09:23:48;7.65;;;4.15;;
41713;SDS011;27401;47.384;13.666;2024-01-30T09:26:14;9.52;;;3.40;;
41713;SDS011;27401;47.384;13.666;2024-01-30T09:28:40;9.63;;;2.28;;
41713;SDS011;27401;47.384;13.666;2024-01-30T09:31:11;4.75;;;1.67;;
41713;SDS011;27401;47.384;13.666;2024-01-30T09:33:37;4.03;;;1.15;;
41713;SDS011;27401;47.384;13.666;2024-01-30T09:36:04;1.42;;;0.80;;
41713;SDS011;27401;47.384;13.666;2024-01-30T09:38:30;0.90;;;0.68;;
41713;SDS011;27401;47.384;13.666;2024-01-30T09:40:56;0.60;;;0.60;;
41713;SDS011;27401;47.384;13.666;2024-01-30T09:43:28;7.00;;;1.10;;
41713;SDS011;27401;47.384;13.666;2024-01-30T09:45:57;9.85;;;1.88;;
41713;SDS011;27401;47.384;13.666;2024-01-30T09:48:25;16.52;;;7.75;;
41713;SDS011;27401;47.384;13.666;2024-01-30T09:50:51;21.35;;;13.25;;
41713;SDS011;27401;47.384;13.666;2024-01-30T09:53:17;8.35;;;3.42;;
41713;SDS011;27401;47.384;13.666;2024-01-30T09:55:43;1.63;;;0.80;;
41713;SDS011;27401;47.384;13.666;2024-01-30T09:58:09;11.05;;;2.25;;
41713;SDS011;27401;47.384;13.666;2024-01-30T10:00:35;9.40;;;1.02;;
41713;SDS011;27401;47.384;13.666;2024-01-30T10:03:00;3.20;;;1.48;;
41713;SDS011;27401;47.384;13.666;2024-01-30T10:05:29;7.30;;;2.50;;
41713;SDS011;27401;47.384;13.666;2024-01-30T10:07:59;3.55;;;1.40;;
41713;SDS011;27401;47.384;13.666;2024-01-30T10:10:24;3.08;;;1.88;;
41713;SDS011;27401;47.384;13.666;2024-01-30T10:12:50;6.50;;;2.97;;
41713;SDS011;27401;47.384;13.666;2024-01-30T10:15:17;3.63;;;1.10;;
41713;SDS011;27401;47.384;13.666;2024-01-30T10:17:44;7.32;;;4.60;;
41713;SDS011;27401;47.384;13.666;2024-01-30T10:20:10;11.77;;;6.15;;
41713;SDS011;27401;47.384;13.666;2024-01-30T10:22:36;8.40;;;5.30;;
41713;SDS011;27401;47.384;13.666;2024-01-30T10:25:02;9.23;;;6.93;;
41713;SDS011;27401;47.384;13.666;2024-01-30T10:27:28;2.55;;;1.58;;
41713;SDS011;27401;47.384;13.666;2024-01-30T10:29:55;2.97;;;0.60;;
41713;SDS011;27401;47.384;13.666;2024-01-30T10:32:21;0.52;;;0.50;;
41713;SDS011;27401;47.384;13.666;2024-01-30T10:34:47;4.07;;;0.70;;
41713;SDS011;27401;47.384;13.666;2024-01-30T10:37:12;3.40;;;0.73;;
41713;SDS011;27401;47.384;13.666;2024-01-30T10:39:41;2.55;;;0.68;;
41713;SDS011;27401;47.384;13.666;2024-01-30T10:42:15;4.25;;;1.27;;
41713;SDS011;27401;47.384;13.666;2024-01-30T10:47:36;3.22;;;0.55;;
41713;SDS011;27401;47.384;13.666;2024-01-30T10:50:03;1.23;;;0.57;;
41713;SDS011;27401;47.384;13.666;2024-01-30T10:52:29;2.67;;;0.50;;
41713;SDS011;27401;47.384;13.666;2024-01-30T10:54:55;1.48;;;0.50;;
41713;SDS011;27401;47.384;13.666;2024-01-30T10:57:27;1.63;;;0.55;;
41713;SDS011;27401;47.384;13.666;2024-01-30T10:59:55;4.60;;;0.60;;
41713;SDS011;27401;47.384;13.666;2024-01-30T11:02:22;4.55;;;1.60;;
41713;SDS011;27401;47.384;13.666;2024-01-30T11:04:49;5.32;;;2.40;;
41713;SDS011;27401;47.384;13.666;2024-01-30T11:07:15;5.07;;;2.30;;
41713;SDS011;27401;47.384;13.666;2024-01-30T11:09:48;5.70;;;2.60;;
41713;SDS011;27401;47.384;13.666;2024-01-30T11:12:15;3.80;;;1.60;;
41713;SDS011;27401;47.384;13.666;2024-01-30T11:14:40;5.22;;;1.55;;
41713;SDS011;27401;47.384;13.666;2024-01-30T11:17:08;3.85;;;1.00;;
41713;SDS011;27401;47.384;13.666;2024-01-30T11:19:35;1.75;;;0.47;;
41713;SDS011;27401;47.384;13.666;2024-01-30T11:22:00;1.23;;;0.40;;
41713;SDS011;27401;47.384;13.666;2024-01-30T11:24:27;0.57;;;0.38;;
41713;SDS011;27401;47.384;13.666;2024-01-30T11:26:56;1.08;;;0.40;;
41713;SDS011;27401;47.384;13.666;2024-01-30T11:29:26;0.88;;;0.40;;
41713;SDS011;27401;47.384;13.666;2024-01-30T11:31:56;0.38;;;0.30;;
41713;SDS011;27401;47.384;13.666;2024-01-30T11:34:23;1.30;;;0.50;;
41713;SDS011;27401;47.384;13.666;2024-01-30T11:36:51;2.03;;;0.57;;
41713;SDS011;27401;47.384;13.666;2024-01-30T11:39:24;3.22;;;0.57;;
41713;SDS011;27401;47.384;13.666;2024-01-30T11:41:51;2.38;;;0.68;;
41713;SDS011;27401;47.384;13.666;2024-01-30T11:44:20;4.78;;;0.80;;
41713;SDS011;27401;47.384;13.666;2024-01-30T11:46:49;1.95;;;0.60;;
41713;SDS011;27401;47.384;13.666;2024-01-30T11:49:15;0.70;;;0.60;;
41713;SDS011;27401;47.384;13.666;2024-01-30T11:51:45;0.68;;;0.50;;
41713;SDS011;27401;47.384;13.666;2024-01-30T11:54:11;0.43;;;0.40;;
41713;SDS011;27401;47.384;13.666;2024-01-30T11:56:37;2.13;;;0.60;;
41713;SDS011;27401;47.384;13.666;2024-01-30T11:59:04;2.55;;;0.63;;
41713;SDS011;27401;47.384;13.666;2024-01-30T12:01:30;4.63;;;0.60;;
41713;SDS011;27401;47.384;13.666;2024-01-30T12:03:57;5.20;;;1.00;;
41713;SDS011;27401;47.384;13.666;2024-01-30T12:06:23;4.88;;;0.73;;
41713;SDS011;27401;47.384;13.666;2024-01-30T12:08:58;4.32;;;0.95;;
41713;SDS011;27401;47.384;13.666;2024-01-30T12:11:25;5.32;;;0.68;;
41713;SDS011;27401;47.384;13.666;2024-01-30T12:13:55;5.30;;;0.60;;
41713;SDS011;27401;47.384;13.666;2024-01-30T12:16:21;22.02;;;1.17;;
41713;SDS011;27401;47.384;13.666;2024-01-30T12:18:47;2.47;;;1.23;;
41713;SDS011;27401;47.384;13.666;2024-01-30T12:21:15;5.80;;;3.58;;
41713;SDS011;27401;47.384;13.666;2024-01-30T12:23:42;7.00;;;4.30;;
41713;SDS011;27401;47.384;13.666;2024-01-30T12:26:08;14.40;;;4.28;;
41713;SDS011;27401;47.384;13.666;2024-01-30T12:28:34;10.63;;;3.78;;
41713;SDS011;27401;47.384;13.666;2024-01-30T12:31:03;5.53;;;2.90;;
41713;SDS011;27401;47.384;13.666;2024-01-30T12:33:29;3.55;;;1.02;;
41713;SDS011;27401;47.384;13.666;2024-01-30T12:35:55;6.43;;;2.35;;
41713;SDS011;27401;47.384;13.666;2024-01-30T12:38:22;5.15;;;1.50;;
41713;SDS011;27401;47.384;13.666;2024-01-30T12:40:50;7.18;;;3.45;;
41713;SDS011;27401;47.384;13.666;2024-01-30T12:43:19;17.40;;;2.57;;
41713;SDS011;27401;47.384;13.666;2024-01-30T12:45:44;4.18;;;2.33;;
41713;SDS011;27401;47.384;13.666;2024-01-30T12:48:10;6.93;;;4.03;;
41713;SDS011;27401;47.384;13.666;2024-01-30T12:50:36;18.52;;;4.43;;
41713;SDS011;27401;47.384;13.666;2024-01-30T12:53:01;6.68;;;3.67;;
41713;SDS011;27401;47.384;13.666;2024-01-30T12:55:27;5.30;;;3.03;;
41713;SDS011;27401;47.384;13.666;2024-01-30T12:57:54;4.65;;;2.90;;
41713;SDS011;27401;47.384;13.666;2024-01-30T13:00:20;5.25;;;4.75;;
41713;SDS011;27401;47.384;13.666;2024-01-30T13:02:47;7.57;;;6.70;;
41713;SDS011;27401;47.384;13.666;2024-01-30T13:05:12;9.45;;;6.90;;
41713;SDS011;27401;47.384;13.666;2024-01-30T13:07:38;9.30;;;6.32;;
41713;SDS011;27401;47.384;13.666;2024-01-30T13:10:04;4.25;;;3.33;;
41713;SDS011;27401;47.384;13.666;2024-01-30T13:12:30;6.82;;;5.03;;
41713;SDS011;27401;47.384;13.666;2024-01-30T13:14:57;7.68;;;3.97;;
41713;SDS011;27401;47.384;13.666;2024-01-30T13:17:24;4.10;;;3.00;;
41713;SDS011;27401;47.384;13.666;2024-01-30T13:19:49;3.78;;;2.40;;
41713;SDS011;27401;47.384;13.666;2024-01-30T13:22:15;8.00;;;1.65;;
41713;SDS011;27401;47.384;13.666;2024-01-30T13:24:40;7.15;;;2.50;;
41713;SDS011;27401;47.384;13.666;2024-01-30T13:27:07;5.20;;;3.83;;
41713;SDS011;27401;47.384;13.666;2024-01-30T13:29:33;6.22;;;5.28;;
41713;SDS011;27401;47.384;13.666;2024-01-30T13:31:59;1.15;;;1.10;;
41713;SDS011;27401;47.384;13.666;2024-01-30T13:34:25;2.83;;;1.90;;
41713;SDS011;27401;47.384;13.666;2024-01-30T13:36:50;1.50;;;1.35;;
41713;SDS011;27401;47.384;13.666;2024-01-30T13:39:17;2.20;;;0.93;;
41713;SDS011;27401;47.384;13.666;2024-01-30T13:41:42;1.48;;;1.00;;
41713;SDS011;27401;47.384;13.666;2024-01-30T13:44:08;0.95;;;0.90;;
41713;SDS011;27401;47.384;13.666;2024-01-30T13:46:34;1.30;;;1.20;;
41713;SDS011;27401;47.384;13.666;2024-01-30T13:49:01;1.00;;;0.90;;
41713;SDS011;27401;47.384;13.666;2024-01-30T13:51:27;0.82;;;0.73;;
41713;SDS011;27401;47.384;13.666;2024-01-30T13:53:53;1.10;;;0.73;;
41713;SDS011;27401;47.384;13.666;2024-01-30T13:56:21;1.00;;;0.93;;
41713;SDS011;27401;47.384;13.666;2024-01-30T13:58:48;1.38;;;0.85;;
41713;SDS011;27401;47.384;13.666;2024-01-30T14:01:15;2.03;;;0.50;;
41713;SDS011;27401;47.384;13.666;2024-01-30T14:03:41;1.20;;;1.10;;
41713;SDS011;27401;47.384;13.666;2024-01-30T14:06:06;2.03;;;1.33;;
41713;SDS011;27401;47.384;13.666;2024-01-30T14:08:32;1.30;;;1.00;;
41713;SDS011;27401;47.384;13.666;2024-01-30T14:10:58;0.50;;;0.50;;
41713;SDS011;27401;47.384;13.666;2024-01-30T14:13:23;1.25;;;0.50;;
41713;SDS011;27401;47.384;13.666;2024-01-30T14:15:53;0.60;;;0.40;;
41713;SDS011;27401;47.384;13.666;2024-01-30T14:18:19;1.70;;;0.30;;
41713;SDS011;27401;47.384;13.666;2024-01-30T14:20:44;0.95;;;0.20;;
41713;SDS011;27401;47.384;13.666;2024-01-30T14:23:10;3.35;;;0.20;;
41713;SDS011;27401;47.384;13.666;2024-01-30T14:25:36;4.97;;;0.40;;
41713;SDS011;27401;47.384;13.666;2024-01-30T14:28:01;0.30;;;0.28;;
41713;SDS011;27401;47.384;13.666;2024-01-30T14:30:27;0.25;;;0.15;;
41713;SDS011;27401;47.384;13.666;2024-01-30T14:32:53;1.55;;;0.20;;